sensor_id;sensor_type;location;lat;lon;timestamp;P1;durP1;ratioP1;P2;durP2;ratioP2
19446;SDS011;9862;49.462;11.054;2023-04-25T00:00:54;5.22;;;3.70;;
19446;SDS011;9862;49.462;11.054;2023-04-25T00:03:21;6.90;;;3.80;;
19446;SDS011;9862;49.462;11.054;2023-04-25T00:05:50;6.60;;;3.75;;
19446;SDS011;9862;49.462;11.054;2023-04-25T00:08:16;4.88;;;3.85;;
19446;SDS011;9862;49.462;11.054;2023-04-25T00:10:44;4.47;;;4.07;;
19446;SDS011;9862;49.462;11.054;2023-04-25T00:13:11;4.90;;;3.50;;
19446;SDS011;9862;49.462;11.054;2023-04-25T00:15:38;6.05;;;4.15;;
19446;SDS011;9862;49.462;11.054;2023-04-25T00:18:06;5.55;;;4.00;;
19446;SDS011;9862;49.462;11.054;2023-04-25T00:20:33;6.15;;;3.30;;
19446;SDS011;9862;49.462;11.054;2023-04-25T00:22:59;5.85;;;3.50;;
19446;SDS011;9862;49.462;11.054;2023-04-25T00:25:26;5.00;;;3.80;;
19446;SDS011;9862;49.462;11.054;2023-04-25T00:27:54;6.68;;;3.60;;
19446;SDS011;9862;49.462;11.054;2023-04-25T00:30:20;4.95;;;2.97;;
19446;SDS011;9862;49.462;11.054;2023-04-25T00:32:47;4.00;;;3.28;;
19446;SDS011;9862;49.462;11.054;2023-04-25T00:35:14;6.13;;;3.63;;
19446;SDS011;9862;49.462;11.054;2023-04-25T00:37:41;4.28;;;3.45;;
19446;SDS011;9862;49.462;11.054;2023-04-25T00:40:08;5.57;;;3.67;;
19446;SDS011;9862;49.462;11.054;2023-04-25T00:42:35;6.60;;;4.03;;
19446;SDS011;9862;49.462;11.054;2023-04-25T00:45:05;6.13;;;3.72;;
19446;SDS011;9862;49.462;11.054;2023-04-25T00:47:33;5.45;;;3.25;;
19446;SDS011;9862;49.462;11.054;2023-04-25T00:50:02;7.20;;;3.80;;
19446;SDS011;9862;49.462;11.054;2023-04-25T00:52:29;5.38;;;3.58;;
19446;SDS011;9862;49.462;11.054;2023-04-25T00:54:55;5.00;;;3.40;;
19446;SDS011;9862;49.462;11.054;2023-04-25T00:57:22;4.53;;;3.40;;
19446;SDS011;9862;49.462;11.054;2023-04-25T00:59:48;3.75;;;3.05;;
19446;SDS011;9862;49.462;11.054;2023-04-25T01:02:18;5.22;;;3.40;;
19446;SDS011;9862;49.462;11.054;2023-04-25T01:04:46;4.05;;;3.42;;
19446;SDS011;9862;49.462;11.054;2023-04-25T01:07:14;4.15;;;2.85;;
19446;SDS011;9862;49.462;11.054;2023-04-25T01:09:41;5.07;;;2.80;;
19446;SDS011;9862;49.462;11.054;2023-04-25T01:12:08;4.97;;;3.03;;
19446;SDS011;9862;49.462;11.054;2023-04-25T01:14:35;4.53;;;3.38;;
19446;SDS011;9862;49.462;11.054;2023-04-25T01:17:01;5.57;;;3.08;;
19446;SDS011;9862;49.462;11.054;2023-04-25T01:19:29;4.45;;;3.28;;
19446;SDS011;9862;49.462;11.054;2023-04-25T01:21:57;4.53;;;2.60;;
19446;SDS011;9862;49.462;11.054;2023-04-25T01:24:24;4.53;;;3.38;;
19446;SDS011;9862;49.462;11.054;2023-04-25T01:26:51;5.28;;;3.20;;
19446;SDS011;9862;49.462;11.054;2023-04-25T01:29:21;3.67;;;3.00;;
19446;SDS011;9862;49.462;11.054;2023-04-25T01:31:49;3.88;;;2.92;;
19446;SDS011;9862;49.462;11.054;2023-04-25T01:34:17;3.70;;;2.45;;
19446;SDS011;9862;49.462;11.054;2023-04-25T01:36:44;4.10;;;2.95;;
19446;SDS011;9862;49.462;11.054;2023-04-25T01:39:11;3.38;;;2.50;;
19446;SDS011;9862;49.462;11.054;2023-04-25T01:41:38;3.83;;;3.40;;
19446;SDS011;9862;49.462;11.054;2023-04-25T01:44:05;3.70;;;2.75;;
19446;SDS011;9862;49.462;11.054;2023-04-25T01:46:32;3.90;;;2.88;;
19446;SDS011;9862;49.462;11.054;2023-04-25T01:49:00;5.13;;;3.35;;
19446;SDS011;9862;49.462;11.054;2023-04-25T01:51:26;4.13;;;3.03;;
19446;SDS011;9862;49.462;11.054;2023-04-25T01:53:53;4.07;;;3.53;;
19446;SDS011;9862;49.462;11.054;2023-04-25T01:56:21;6.00;;;3.08;;
19446;SDS011;9862;49.462;11.054;2023-04-25T01:58:48;6.75;;;3.00;;
19446;SDS011;9862;49.462;11.054;2023-04-25T02:01:15;4.30;;;3.05;;
19446;SDS011;9862;49.462;11.054;2023-04-25T02:03:41;3.97;;;3.00;;
19446;SDS011;9862;49.462;11.054;2023-04-25T02:06:08;4.60;;;3.20;;
19446;SDS011;9862;49.462;11.054;2023-04-25T02:08:35;2.97;;;2.60;;
19446;SDS011;9862;49.462;11.054;2023-04-25T02:11:03;3.35;;;2.50;;
19446;SDS011;9862;49.462;11.054;2023-04-25T02:13:32;4.50;;;2.95;;
19446;SDS011;9862;49.462;11.054;2023-04-25T02:16:00;4.78;;;3.00;;
19446;SDS011;9862;49.462;11.054;2023-04-25T02:18:28;4.93;;;3.40;;
19446;SDS011;9862;49.462;11.054;2023-04-25T02:20:57;3.78;;;2.83;;
19446;SDS011;9862;49.462;11.054;2023-04-25T02:23:24;4.78;;;3.30;;
19446;SDS011;9862;49.462;11.054;2023-04-25T02:25:51;5.40;;;3.20;;
19446;SDS011;9862;49.462;11.054;2023-04-25T02:28:20;6.20;;;3.08;;
19446;SDS011;9862;49.462;11.054;2023-04-25T02:30:48;4.35;;;2.95;;
19446;SDS011;9862;49.462;11.054;2023-04-25T02:33:15;5.18;;;2.80;;
19446;SDS011;9862;49.462;11.054;2023-04-25T02:35:42;4.20;;;3.00;;
19446;SDS011;9862;49.462;11.054;2023-04-25T02:38:08;4.07;;;2.75;;
19446;SDS011;9862;49.462;11.054;2023-04-25T02:40:35;3.33;;;2.97;;
19446;SDS011;9862;49.462;11.054;2023-04-25T02:43:01;4.60;;;3.20;;
19446;SDS011;9862;49.462;11.054;2023-04-25T02:45:28;4.85;;;3.38;;
19446;SDS011;9862;49.462;11.054;2023-04-25T02:47:56;5.40;;;3.50;;
19446;SDS011;9862;49.462;11.054;2023-04-25T02:50:22;7.43;;;5.15;;
19446;SDS011;9862;49.462;11.054;2023-04-25T02:52:49;13.90;;;8.40;;
19446;SDS011;9862;49.462;11.054;2023-04-25T02:55:15;23.10;;;10.80;;
19446;SDS011;9862;49.462;11.054;2023-04-25T02:57:42;10.77;;;6.28;;
19446;SDS011;9862;49.462;11.054;2023-04-25T03:00:09;4.95;;;4.15;;
19446;SDS011;9862;49.462;11.054;2023-04-25T03:02:39;5.63;;;3.80;;
19446;SDS011;9862;49.462;11.054;2023-04-25T03:05:07;5.75;;;4.05;;
19446;SDS011;9862;49.462;11.054;2023-04-25T03:07:33;6.10;;;4.15;;
19446;SDS011;9862;49.462;11.054;2023-04-25T03:10:00;6.70;;;4.57;;
19446;SDS011;9862;49.462;11.054;2023-04-25T03:12:27;5.72;;;4.60;;
19446;SDS011;9862;49.462;11.054;2023-04-25T03:14:53;4.95;;;4.22;;
19446;SDS011;9862;49.462;11.054;2023-04-25T03:17:20;5.10;;;4.07;;
19446;SDS011;9862;49.462;11.054;2023-04-25T03:19:46;7.68;;;5.28;;
19446;SDS011;9862;49.462;11.054;2023-04-25T03:22:15;6.95;;;4.82;;
19446;SDS011;9862;49.462;11.054;2023-04-25T03:24:41;5.47;;;4.28;;
19446;SDS011;9862;49.462;11.054;2023-04-25T03:27:08;6.95;;;4.70;;
19446;SDS011;9862;49.462;11.054;2023-04-25T03:29:34;7.32;;;5.03;;
19446;SDS011;9862;49.462;11.054;2023-04-25T03:32:01;7.65;;;4.78;;
19446;SDS011;9862;49.462;11.054;2023-04-25T03:34:28;7.68;;;5.00;;
19446;SDS011;9862;49.462;11.054;2023-04-25T03:36:54;8.43;;;4.78;;
19446;SDS011;9862;49.462;11.054;2023-04-25T03:39:22;7.13;;;4.90;;
19446;SDS011;9862;49.462;11.054;2023-04-25T03:41:49;8.50;;;5.13;;
19446;SDS011;9862;49.462;11.054;2023-04-25T03:44:16;7.07;;;4.90;;
19446;SDS011;9862;49.462;11.054;2023-04-25T03:46:42;7.88;;;5.05;;
19446;SDS011;9862;49.462;11.054;2023-04-25T03:49:09;7.88;;;5.13;;
19446;SDS011;9862;49.462;11.054;2023-04-25T03:51:35;8.57;;;5.78;;
19446;SDS011;9862;49.462;11.054;2023-04-25T03:54:02;6.72;;;5.20;;
19446;SDS011;9862;49.462;11.054;2023-04-25T03:56:30;7.10;;;5.10;;
19446;SDS011;9862;49.462;11.054;2023-04-25T03:58:57;7.93;;;5.90;;
19446;SDS011;9862;49.462;11.054;2023-04-25T04:01:23;8.55;;;5.35;;
19446;SDS011;9862;49.462;11.054;2023-04-25T04:03:50;7.80;;;5.15;;
19446;SDS011;9862;49.462;11.054;2023-04-25T04:06:16;7.95;;;5.32;;
19446;SDS011;9862;49.462;11.054;2023-04-25T04:08:43;7.35;;;5.15;;
19446;SDS011;9862;49.462;11.054;2023-04-25T04:11:10;7.13;;;4.95;;
19446;SDS011;9862;49.462;11.054;2023-04-25T04:13:38;8.43;;;5.10;;
19446;SDS011;9862;49.462;11.054;2023-04-25T04:16:04;7.00;;;4.72;;
19446;SDS011;9862;49.462;11.054;2023-04-25T04:18:31;12.15;;;6.10;;
19446;SDS011;9862;49.462;11.054;2023-04-25T04:20:58;8.93;;;5.60;;
19446;SDS011;9862;49.462;11.054;2023-04-25T04:23:25;10.45;;;6.18;;
19446;SDS011;9862;49.462;11.054;2023-04-25T04:25:53;10.50;;;5.43;;
19446;SDS011;9862;49.462;11.054;2023-04-25T04:28:20;11.43;;;6.55;;
19446;SDS011;9862;49.462;11.054;2023-04-25T04:30:48;10.23;;;5.88;;
19446;SDS011;9862;49.462;11.054;2023-04-25T04:33:16;9.73;;;5.20;;
19446;SDS011;9862;49.462;11.054;2023-04-25T04:35:44;12.02;;;5.88;;
19446;SDS011;9862;49.462;11.054;2023-04-25T04:38:11;7.30;;;5.18;;
19446;SDS011;9862;49.462;11.054;2023-04-25T04:40:40;8.90;;;5.80;;
19446;SDS011;9862;49.462;11.054;2023-04-25T04:43:08;8.52;;;5.43;;
19446;SDS011;9862;49.462;11.054;2023-04-25T04:45:35;7.78;;;5.57;;
19446;SDS011;9862;49.462;11.054;2023-04-25T04:48:04;8.88;;;5.57;;
19446;SDS011;9862;49.462;11.054;2023-04-25T04:50:31;11.52;;;6.00;;
19446;SDS011;9862;49.462;11.054;2023-04-25T04:52:58;10.02;;;5.55;;
19446;SDS011;9862;49.462;11.054;2023-04-25T04:55:25;8.57;;;5.70;;
19446;SDS011;9862;49.462;11.054;2023-04-25T04:57:52;10.25;;;5.50;;
19446;SDS011;9862;49.462;11.054;2023-04-25T05:00:18;9.25;;;5.80;;
19446;SDS011;9862;49.462;11.054;2023-04-25T05:02:45;8.27;;;5.65;;
19446;SDS011;9862;49.462;11.054;2023-04-25T05:05:13;9.73;;;6.00;;
19446;SDS011;9862;49.462;11.054;2023-04-25T05:07:40;8.68;;;5.30;;
19446;SDS011;9862;49.462;11.054;2023-04-25T05:10:07;6.88;;;5.22;;
19446;SDS011;9862;49.462;11.054;2023-04-25T05:12:34;8.82;;;6.03;;
19446;SDS011;9862;49.462;11.054;2023-04-25T05:15:01;9.80;;;5.65;;
19446;SDS011;9862;49.462;11.054;2023-04-25T05:17:27;7.43;;;5.72;;
19446;SDS011;9862;49.462;11.054;2023-04-25T05:19:54;8.38;;;5.63;;
19446;SDS011;9862;49.462;11.054;2023-04-25T05:22:22;10.20;;;6.90;;
19446;SDS011;9862;49.462;11.054;2023-04-25T05:24:48;8.95;;;5.32;;
19446;SDS011;9862;49.462;11.054;2023-04-25T05:27:16;9.48;;;5.68;;
19446;SDS011;9862;49.462;11.054;2023-04-25T05:29:43;8.57;;;5.20;;
19446;SDS011;9862;49.462;11.054;2023-04-25T05:32:10;7.80;;;4.95;;
19446;SDS011;9862;49.462;11.054;2023-04-25T05:34:36;11.15;;;6.30;;
19446;SDS011;9862;49.462;11.054;2023-04-25T05:37:03;7.90;;;4.80;;
19446;SDS011;9862;49.462;11.054;2023-04-25T05:39:31;10.20;;;5.75;;
19446;SDS011;9862;49.462;11.054;2023-04-25T05:41:57;9.65;;;6.15;;
19446;SDS011;9862;49.462;11.054;2023-04-25T05:44:24;12.80;;;7.50;;
19446;SDS011;9862;49.462;11.054;2023-04-25T05:46:51;7.05;;;5.03;;
19446;SDS011;9862;49.462;11.054;2023-04-25T05:49:18;7.15;;;5.25;;
19446;SDS011;9862;49.462;11.054;2023-04-25T05:51:45;7.68;;;4.88;;
19446;SDS011;9862;49.462;11.054;2023-04-25T05:54:11;8.57;;;5.20;;
19446;SDS011;9862;49.462;11.054;2023-04-25T05:56:39;10.60;;;5.13;;
19446;SDS011;9862;49.462;11.054;2023-04-25T05:59:05;8.07;;;5.10;;
19446;SDS011;9862;49.462;11.054;2023-04-25T06:01:32;9.18;;;5.43;;
19446;SDS011;9862;49.462;11.054;2023-04-25T06:03:58;6.85;;;5.03;;
19446;SDS011;9862;49.462;11.054;2023-04-25T06:06:25;8.32;;;5.15;;
19446;SDS011;9862;49.462;11.054;2023-04-25T06:08:52;8.40;;;5.25;;
19446;SDS011;9862;49.462;11.054;2023-04-25T06:11:19;7.65;;;5.10;;
19446;SDS011;9862;49.462;11.054;2023-04-25T06:13:47;8.60;;;5.18;;
19446;SDS011;9862;49.462;11.054;2023-04-25T06:16:14;8.85;;;5.05;;
19446;SDS011;9862;49.462;11.054;2023-04-25T06:18:40;8.52;;;5.55;;
19446;SDS011;9862;49.462;11.054;2023-04-25T06:21:07;8.90;;;5.57;;
19446;SDS011;9862;49.462;11.054;2023-04-25T06:23:33;9.82;;;5.65;;
19446;SDS011;9862;49.462;11.054;2023-04-25T06:26:00;7.88;;;5.30;;
19446;SDS011;9862;49.462;11.054;2023-04-25T06:28:26;7.28;;;5.30;;
19446;SDS011;9862;49.462;11.054;2023-04-25T06:30:54;9.82;;;5.72;;
19446;SDS011;9862;49.462;11.054;2023-04-25T06:33:21;10.10;;;6.40;;
19446;SDS011;9862;49.462;11.054;2023-04-25T06:35:49;11.02;;;6.28;;
19446;SDS011;9862;49.462;11.054;2023-04-25T06:38:16;12.52;;;6.43;;
19446;SDS011;9862;49.462;11.054;2023-04-25T06:40:42;8.50;;;6.10;;
19446;SDS011;9862;49.462;11.054;2023-04-25T06:43:09;8.85;;;6.00;;
19446;SDS011;9862;49.462;11.054;2023-04-25T06:45:36;8.73;;;5.57;;
19446;SDS011;9862;49.462;11.054;2023-04-25T06:48:04;16.83;;;8.35;;
19446;SDS011;9862;49.462;11.054;2023-04-25T06:50:31;12.80;;;6.55;;
19446;SDS011;9862;49.462;11.054;2023-04-25T06:52:58;11.88;;;7.68;;
19446;SDS011;9862;49.462;11.054;2023-04-25T06:55:26;18.55;;;9.52;;
19446;SDS011;9862;49.462;11.054;2023-04-25T06:57:53;12.65;;;7.78;;
19446;SDS011;9862;49.462;11.054;2023-04-25T07:00:20;11.60;;;7.57;;
19446;SDS011;9862;49.462;11.054;2023-04-25T07:02:47;12.85;;;8.18;;
19446;SDS011;9862;49.462;11.054;2023-04-25T07:05:15;17.67;;;10.55;;
19446;SDS011;9862;49.462;11.054;2023-04-25T07:07:42;8.70;;;5.40;;
19446;SDS011;9862;49.462;11.054;2023-04-25T07:10:08;11.65;;;6.65;;
19446;SDS011;9862;49.462;11.054;2023-04-25T07:12:35;10.38;;;7.18;;
19446;SDS011;9862;49.462;11.054;2023-04-25T07:15:01;8.82;;;6.53;;
19446;SDS011;9862;49.462;11.054;2023-04-25T07:17:31;8.48;;;5.63;;
19446;SDS011;9862;49.462;11.054;2023-04-25T07:19:58;10.85;;;5.63;;
19446;SDS011;9862;49.462;11.054;2023-04-25T07:22:26;6.85;;;5.07;;
19446;SDS011;9862;49.462;11.054;2023-04-25T07:24:53;5.85;;;4.13;;
19446;SDS011;9862;49.462;11.054;2023-04-25T07:27:20;5.55;;;3.97;;
19446;SDS011;9862;49.462;11.054;2023-04-25T07:29:47;5.00;;;4.00;;
19446;SDS011;9862;49.462;11.054;2023-04-25T07:32:13;5.65;;;3.75;;
19446;SDS011;9862;49.462;11.054;2023-04-25T07:34:40;5.43;;;3.33;;
19446;SDS011;9862;49.462;11.054;2023-04-25T07:37:06;7.63;;;4.10;;
19446;SDS011;9862;49.462;11.054;2023-04-25T07:39:34;6.75;;;4.40;;
19446;SDS011;9862;49.462;11.054;2023-04-25T07:42:02;7.13;;;4.28;;
19446;SDS011;9862;49.462;11.054;2023-04-25T07:44:29;7.03;;;3.95;;
19446;SDS011;9862;49.462;11.054;2023-04-25T07:46:56;7.10;;;4.10;;
19446;SDS011;9862;49.462;11.054;2023-04-25T07:49:22;6.03;;;4.55;;
19446;SDS011;9862;49.462;11.054;2023-04-25T07:51:49;4.93;;;3.60;;
19446;SDS011;9862;49.462;11.054;2023-04-25T07:54:16;5.43;;;4.05;;
19446;SDS011;9862;49.462;11.054;2023-04-25T07:56:44;8.02;;;4.93;;
19446;SDS011;9862;49.462;11.054;2023-04-25T07:59:11;7.22;;;4.35;;
19446;SDS011;9862;49.462;11.054;2023-04-25T08:01:37;5.57;;;4.00;;
19446;SDS011;9862;49.462;11.054;2023-04-25T08:04:04;6.40;;;4.38;;
19446;SDS011;9862;49.462;11.054;2023-04-25T08:06:30;5.88;;;3.97;;
19446;SDS011;9862;49.462;11.054;2023-04-25T08:08:57;7.25;;;4.72;;
19446;SDS011;9862;49.462;11.054;2023-04-25T08:11:24;7.38;;;3.65;;
19446;SDS011;9862;49.462;11.054;2023-04-25T08:13:52;6.28;;;3.45;;
19446;SDS011;9862;49.462;11.054;2023-04-25T08:16:19;4.80;;;3.30;;
19446;SDS011;9862;49.462;11.054;2023-04-25T08:18:45;5.35;;;3.38;;
19446;SDS011;9862;49.462;11.054;2023-04-25T08:21:12;6.97;;;3.15;;
19446;SDS011;9862;49.462;11.054;2023-04-25T08:23:39;8.27;;;3.65;;
19446;SDS011;9862;49.462;11.054;2023-04-25T08:26:05;7.63;;;3.10;;
19446;SDS011;9862;49.462;11.054;2023-04-25T08:28:32;5.70;;;3.13;;
19446;SDS011;9862;49.462;11.054;2023-04-25T08:31:00;5.65;;;3.65;;
19446;SDS011;9862;49.462;11.054;2023-04-25T08:33:26;4.65;;;3.22;;
19446;SDS011;9862;49.462;11.054;2023-04-25T08:35:54;5.70;;;3.33;;
19446;SDS011;9862;49.462;11.054;2023-04-25T08:38:20;6.00;;;3.58;;
19446;SDS011;9862;49.462;11.054;2023-04-25T08:40:48;5.53;;;3.90;;
19446;SDS011;9862;49.462;11.054;2023-04-25T08:43:17;9.00;;;3.65;;
19446;SDS011;9862;49.462;11.054;2023-04-25T08:45:44;9.38;;;4.43;;
19446;SDS011;9862;49.462;11.054;2023-04-25T08:48:13;6.82;;;4.82;;
19446;SDS011;9862;49.462;11.054;2023-04-25T08:50:44;7.28;;;4.38;;
19446;SDS011;9862;49.462;11.054;2023-04-25T08:53:13;9.50;;;4.75;;
19446;SDS011;9862;49.462;11.054;2023-04-25T08:55:44;7.47;;;4.35;;
19446;SDS011;9862;49.462;11.054;2023-04-25T08:58:12;10.77;;;4.53;;
19446;SDS011;9862;49.462;11.054;2023-04-25T09:00:39;7.10;;;4.22;;
19446;SDS011;9862;49.462;11.054;2023-04-25T09:03:06;7.75;;;4.50;;
19446;SDS011;9862;49.462;11.054;2023-04-25T09:05:34;7.80;;;4.75;;
19446;SDS011;9862;49.462;11.054;2023-04-25T09:08:01;7.97;;;5.15;;
19446;SDS011;9862;49.462;11.054;2023-04-25T09:10:28;11.43;;;4.80;;
19446;SDS011;9862;49.462;11.054;2023-04-25T09:13:04;8.25;;;5.05;;
19446;SDS011;9862;49.462;11.054;2023-04-25T09:15:34;8.07;;;4.75;;
19446;SDS011;9862;49.462;11.054;2023-04-25T09:18:13;9.63;;;5.80;;
19446;SDS011;9862;49.462;11.054;2023-04-25T09:20:49;7.78;;;5.15;;
19446;SDS011;9862;49.462;11.054;2023-04-25T09:23:15;7.40;;;5.15;;
19446;SDS011;9862;49.462;11.054;2023-04-25T09:25:42;7.35;;;5.15;;
19446;SDS011;9862;49.462;11.054;2023-04-25T09:28:09;6.85;;;4.70;;
19446;SDS011;9862;49.462;11.054;2023-04-25T09:30:37;6.32;;;5.15;;
19446;SDS011;9862;49.462;11.054;2023-04-25T09:33:04;8.50;;;5.38;;
19446;SDS011;9862;49.462;11.054;2023-04-25T09:35:34;9.27;;;5.18;;
19446;SDS011;9862;49.462;11.054;2023-04-25T09:38:07;7.25;;;5.32;;
19446;SDS011;9862;49.462;11.054;2023-04-25T09:40:38;8.05;;;5.82;;
19446;SDS011;9862;49.462;11.054;2023-04-25T09:43:08;7.70;;;5.07;;
19446;SDS011;9862;49.462;11.054;2023-04-25T09:45:40;6.90;;;4.95;;
19446;SDS011;9862;49.462;11.054;2023-04-25T09:48:10;8.52;;;4.63;;
19446;SDS011;9862;49.462;11.054;2023-04-25T09:50:37;8.50;;;5.32;;
19446;SDS011;9862;49.462;11.054;2023-04-25T09:53:04;5.88;;;4.55;;
19446;SDS011;9862;49.462;11.054;2023-04-25T09:55:33;5.93;;;4.57;;
19446;SDS011;9862;49.462;11.054;2023-04-25T09:58:03;5.43;;;3.90;;
19446;SDS011;9862;49.462;11.054;2023-04-25T10:00:32;7.47;;;4.47;;
19446;SDS011;9862;49.462;11.054;2023-04-25T10:02:59;9.52;;;4.40;;
19446;SDS011;9862;49.462;11.054;2023-04-25T10:05:29;10.70;;;5.50;;
19446;SDS011;9862;49.462;11.054;2023-04-25T10:07:58;8.90;;;4.65;;
19446;SDS011;9862;49.462;11.054;2023-04-25T10:10:25;6.40;;;5.05;;
19446;SDS011;9862;49.462;11.054;2023-04-25T10:12:54;8.45;;;5.68;;
19446;SDS011;9862;49.462;11.054;2023-04-25T10:15:21;6.68;;;4.70;;
19446;SDS011;9862;49.462;11.054;2023-04-25T10:17:48;6.60;;;5.18;;
19446;SDS011;9862;49.462;11.054;2023-04-25T10:20:16;10.15;;;4.88;;
19446;SDS011;9862;49.462;11.054;2023-04-25T10:22:44;6.85;;;4.38;;
19446;SDS011;9862;49.462;11.054;2023-04-25T10:25:13;6.03;;;4.00;;
19446;SDS011;9862;49.462;11.054;2023-04-25T10:27:40;6.68;;;3.75;;
19446;SDS011;9862;49.462;11.054;2023-04-25T10:30:09;6.72;;;3.03;;
19446;SDS011;9862;49.462;11.054;2023-04-25T10:32:41;5.00;;;2.85;;
19446;SDS011;9862;49.462;11.054;2023-04-25T10:35:12;3.30;;;2.08;;
19446;SDS011;9862;49.462;11.054;2023-04-25T10:37:59;4.60;;;2.65;;
19446;SDS011;9862;49.462;11.054;2023-04-25T10:40:27;3.80;;;2.65;;
19446;SDS011;9862;49.462;11.054;2023-04-25T10:42:55;5.60;;;2.42;;
19446;SDS011;9862;49.462;11.054;2023-04-25T10:45:23;4.30;;;2.92;;
19446;SDS011;9862;49.462;11.054;2023-04-25T10:47:49;5.03;;;3.58;;
19446;SDS011;9862;49.462;11.054;2023-04-25T10:50:16;5.50;;;3.15;;
19446;SDS011;9862;49.462;11.054;2023-04-25T10:52:43;8.63;;;3.45;;
19446;SDS011;9862;49.462;11.054;2023-04-25T10:55:10;4.38;;;2.40;;
19446;SDS011;9862;49.462;11.054;2023-04-25T10:57:37;3.00;;;2.33;;
19446;SDS011;9862;49.462;11.054;2023-04-25T11:00:07;2.28;;;1.85;;
19446;SDS011;9862;49.462;11.054;2023-04-25T11:02:38;4.10;;;1.90;;
19446;SDS011;9862;49.462;11.054;2023-04-25T11:05:08;4.65;;;2.22;;
19446;SDS011;9862;49.462;11.054;2023-04-25T11:07:37;5.03;;;2.50;;
19446;SDS011;9862;49.462;11.054;2023-04-25T11:10:10;3.65;;;2.08;;
19446;SDS011;9862;49.462;11.054;2023-04-25T11:12:36;3.25;;;2.05;;
19446;SDS011;9862;49.462;11.054;2023-04-25T11:15:04;2.35;;;1.70;;
19446;SDS011;9862;49.462;11.054;2023-04-25T11:17:32;3.80;;;1.70;;
19446;SDS011;9862;49.462;11.054;2023-04-25T11:20:00;7.70;;;2.15;;
19446;SDS011;9862;49.462;11.054;2023-04-25T11:22:31;5.75;;;1.98;;
19446;SDS011;9862;49.462;11.054;2023-04-25T11:24:57;3.55;;;2.00;;
19446;SDS011;9862;49.462;11.054;2023-04-25T11:27:24;2.60;;;1.90;;
19446;SDS011;9862;49.462;11.054;2023-04-25T11:29:50;2.72;;;2.00;;
19446;SDS011;9862;49.462;11.054;2023-04-25T11:32:17;5.22;;;1.70;;
19446;SDS011;9862;49.462;11.054;2023-04-25T11:34:44;2.35;;;1.40;;
19446;SDS011;9862;49.462;11.054;2023-04-25T11:37:12;2.92;;;1.60;;
19446;SDS011;9862;49.462;11.054;2023-04-25T11:39:42;2.10;;;1.55;;
19446;SDS011;9862;49.462;11.054;2023-04-25T11:42:11;4.32;;;1.58;;
19446;SDS011;9862;49.462;11.054;2023-04-25T11:44:38;2.72;;;1.80;;
19446;SDS011;9862;49.462;11.054;2023-04-25T11:47:05;2.63;;;1.50;;
19446;SDS011;9862;49.462;11.054;2023-04-25T11:49:32;2.90;;;1.35;;
19446;SDS011;9862;49.462;11.054;2023-04-25T11:51:58;1.95;;;1.33;;
19446;SDS011;9862;49.462;11.054;2023-04-25T11:54:26;2.58;;;1.48;;
19446;SDS011;9862;49.462;11.054;2023-04-25T11:56:53;2.15;;;1.35;;
19446;SDS011;9862;49.462;11.054;2023-04-25T11:59:22;1.42;;;1.13;;
19446;SDS011;9862;49.462;11.054;2023-04-25T12:01:50;1.50;;;1.40;;
19446;SDS011;9862;49.462;11.054;2023-04-25T12:04:17;1.55;;;1.30;;
19446;SDS011;9862;49.462;11.054;2023-04-25T12:06:45;2.83;;;1.20;;
19446;SDS011;9862;49.462;11.054;2023-04-25T12:09:14;2.88;;;1.65;;
19446;SDS011;9862;49.462;11.054;2023-04-25T12:11:44;2.33;;;1.40;;
19446;SDS011;9862;49.462;11.054;2023-04-25T12:14:12;4.00;;;1.48;;
19446;SDS011;9862;49.462;11.054;2023-04-25T12:16:46;2.53;;;1.30;;
19446;SDS011;9862;49.462;11.054;2023-04-25T12:19:13;1.77;;;1.08;;
19446;SDS011;9862;49.462;11.054;2023-04-25T12:21:40;2.22;;;1.40;;
19446;SDS011;9862;49.462;11.054;2023-04-25T12:24:10;1.55;;;1.33;;
19446;SDS011;9862;49.462;11.054;2023-04-25T12:26:50;2.42;;;1.80;;
19446;SDS011;9862;49.462;11.054;2023-04-25T12:29:18;3.60;;;1.77;;
19446;SDS011;9862;49.462;11.054;2023-04-25T12:31:49;3.08;;;1.58;;
19446;SDS011;9862;49.462;11.054;2023-04-25T12:34:17;2.28;;;1.40;;
19446;SDS011;9862;49.462;11.054;2023-04-25T12:36:43;3.22;;;1.30;;
19446;SDS011;9862;49.462;11.054;2023-04-25T12:39:14;2.50;;;1.52;;
19446;SDS011;9862;49.462;11.054;2023-04-25T12:41:41;3.33;;;1.80;;
19446;SDS011;9862;49.462;11.054;2023-04-25T12:44:09;2.78;;;1.98;;
19446;SDS011;9862;49.462;11.054;2023-04-25T12:46:36;2.80;;;1.67;;
19446;SDS011;9862;49.462;11.054;2023-04-25T12:49:03;2.50;;;1.73;;
19446;SDS011;9862;49.462;11.054;2023-04-25T12:51:29;6.43;;;2.05;;
19446;SDS011;9862;49.462;11.054;2023-04-25T12:53:57;3.17;;;1.40;;
19446;SDS011;9862;49.462;11.054;2023-04-25T12:56:24;2.83;;;1.70;;
19446;SDS011;9862;49.462;11.054;2023-04-25T12:58:51;2.08;;;1.50;;
19446;SDS011;9862;49.462;11.054;2023-04-25T13:01:20;4.10;;;1.67;;
19446;SDS011;9862;49.462;11.054;2023-04-25T13:03:46;3.15;;;2.00;;
19446;SDS011;9862;49.462;11.054;2023-04-25T13:06:14;2.72;;;1.65;;
19446;SDS011;9862;49.462;11.054;2023-04-25T13:08:40;3.03;;;1.50;;
19446;SDS011;9862;49.462;11.054;2023-04-25T13:11:07;2.55;;;1.45;;
19446;SDS011;9862;49.462;11.054;2023-04-25T13:13:34;2.58;;;1.77;;
19446;SDS011;9862;49.462;11.054;2023-04-25T13:16:01;4.05;;;2.00;;
19446;SDS011;9862;49.462;11.054;2023-04-25T13:18:29;3.05;;;1.55;;
19446;SDS011;9862;49.462;11.054;2023-04-25T13:20:56;2.72;;;1.85;;
19446;SDS011;9862;49.462;11.054;2023-04-25T13:23:24;3.92;;;1.80;;
19446;SDS011;9862;49.462;11.054;2023-04-25T13:25:52;9.82;;;1.80;;
19446;SDS011;9862;49.462;11.054;2023-04-25T13:28:20;3.20;;;1.60;;
19446;SDS011;9862;49.462;11.054;2023-04-25T13:30:47;3.58;;;1.70;;
19446;SDS011;9862;49.462;11.054;2023-04-25T13:33:14;2.50;;;1.65;;
19446;SDS011;9862;49.462;11.054;2023-04-25T13:35:42;3.60;;;1.73;;
19446;SDS011;9862;49.462;11.054;2023-04-25T13:38:11;3.92;;;2.08;;
19446;SDS011;9862;49.462;11.054;2023-04-25T13:40:38;3.40;;;1.67;;
19446;SDS011;9862;49.462;11.054;2023-04-25T13:43:05;4.82;;;1.90;;
19446;SDS011;9862;49.462;11.054;2023-04-25T13:45:32;2.45;;;1.70;;
19446;SDS011;9862;49.462;11.054;2023-04-25T13:47:58;2.65;;;1.80;;
19446;SDS011;9862;49.462;11.054;2023-04-25T13:50:25;2.55;;;1.70;;
19446;SDS011;9862;49.462;11.054;2023-04-25T13:52:53;2.97;;;1.67;;
19446;SDS011;9862;49.462;11.054;2023-04-25T13:55:20;5.53;;;2.00;;
19446;SDS011;9862;49.462;11.054;2023-04-25T13:57:46;3.45;;;2.30;;
19446;SDS011;9862;49.462;11.054;2023-04-25T14:00:13;2.70;;;2.00;;
19446;SDS011;9862;49.462;11.054;2023-04-25T14:02:40;4.82;;;2.38;;
19446;SDS011;9862;49.462;11.054;2023-04-25T14:05:07;3.08;;;2.08;;
19446;SDS011;9862;49.462;11.054;2023-04-25T14:07:34;7.22;;;2.05;;
19446;SDS011;9862;49.462;11.054;2023-04-25T14:10:02;3.45;;;1.90;;
19446;SDS011;9862;49.462;11.054;2023-04-25T14:12:30;4.53;;;2.72;;
19446;SDS011;9862;49.462;11.054;2023-04-25T14:14:57;4.28;;;2.17;;
19446;SDS011;9862;49.462;11.054;2023-04-25T14:17:23;4.45;;;2.47;;
19446;SDS011;9862;49.462;11.054;2023-04-25T14:19:50;5.15;;;2.38;;
19446;SDS011;9862;49.462;11.054;2023-04-25T14:22:17;5.25;;;2.58;;
19446;SDS011;9862;49.462;11.054;2023-04-25T14:24:44;4.20;;;2.75;;
19446;SDS011;9862;49.462;11.054;2023-04-25T14:27:12;5.88;;;2.47;;
19446;SDS011;9862;49.462;11.054;2023-04-25T14:29:38;3.95;;;2.00;;
19446;SDS011;9862;49.462;11.054;2023-04-25T14:32:05;4.20;;;2.70;;
19446;SDS011;9862;49.462;11.054;2023-04-25T14:34:32;4.63;;;2.45;;
19446;SDS011;9862;49.462;11.054;2023-04-25T14:36:58;5.38;;;2.97;;
19446;SDS011;9862;49.462;11.054;2023-04-25T14:39:25;4.03;;;2.60;;
19446;SDS011;9862;49.462;11.054;2023-04-25T14:41:51;6.03;;;2.58;;
19446;SDS011;9862;49.462;11.054;2023-04-25T14:44:19;4.80;;;2.88;;
19446;SDS011;9862;49.462;11.054;2023-04-25T14:46:46;6.15;;;2.83;;